Time;durP1;ratioP1;P1;durP2;ratioP2;P2;SDS_P1;SDS_P2;PMS_P1;PMS_P2;Temp;Humidity;BMP_temperature;BMP_pressure;BME280_temperature;BME280_humidity;BME280_pressure;Samples;Min_cycle;Max_cycle;Signal;HPM_P1;HPM_P2
2022/01/02 00:01:08;;;;;;;10.02;6.25;;;;;;;;;;5008901;28;20053;-75
2022/01/02 00:03:35;;;;;;;13.18;5.88;;;;;;;;;;5008862;28;20449;-75
2022/01/02 00:06:02;;;;;;;15.50;6.38;;;;;;;;;;5008070;28;20052;-75
2022/01/02 00:08:31;;;;;;;14.63;6.45;;;;;;;;;;5008500;28;20038;-74
2022/01/02 00:10:58;;;;;;;10.32;6.32;;;;;;;;;;5005541;28;20045;-75
2022/01/02 00:13:28;;;;;;;9.95;5.70;;;;;;;;;;5004158;28;20052;-74
2022/01/02 00:15:56;;;;;;;14.30;6.20;;;;;;;;;;5007608;28;20042;-75
2022/01/02 00:18:26;;;;;;;10.25;5.90;;;;;;;;;;4999804;28;20100;-75
2022/01/02 00:20:53;;;;;;;11.40;5.68;;;;;;;;;;5006227;28;20088;-75
2022/01/02 00:23:23;;;;;;;13.07;6.22;;;;;;;;;;5006317;28;20121;-75
2022/01/02 00:25:53;;;;;;;10.68;5.35;;;;;;;;;;5009011;28;20060;-75
2022/01/02 00:28:20;;;;;;;12.30;5.88;;;;;;;;;;5007450;28;20077;-76
2022/01/02 00:30:47;;;;;;;12.15;6.20;;;;;;;;;;5004290;28;20388;-75
2022/01/02 00:33:13;;;;;;;16.65;6.75;;;;;;;;;;5005668;28;20053;-75
2022/01/02 00:35:39;;;;;;;12.18;5.80;;;;;;;;;;5010826;28;20046;-75
2022/01/02 00:38:07;;;;;;;15.27;6.60;;;;;;;;;;5002524;28;20042;-75
2022/01/02 00:40:35;;;;;;;10.38;5.88;;;;;;;;;;5007634;28;20042;-75
2022/01/02 00:43:05;;;;;;;10.95;5.90;;;;;;;;;;5004780;28;20053;-75
2022/01/02 00:45:35;;;;;;;12.27;6.57;;;;;;;;;;5006849;28;20061;-75
2022/01/02 00:48:15;;;;;;;17.13;6.63;;;;;;;;;;5009308;28;20464;-75
2022/01/02 00:50:49;;;;;;;11.98;6.88;;;;;;;;;;5006864;28;20038;-75
2022/01/02 00:53:17;;;;;;;16.02;7.63;;;;;;;;;;5006326;28;20421;-75
2022/01/02 00:55:46;;;;;;;13.30;7.80;;;;;;;;;;5007764;28;20139;-75
2022/01/02 00:58:19;;;;;;;13.65;7.30;;;;;;;;;;5004557;28;20050;-75
2022/01/02 01:00:50;;;;;;;11.98;6.70;;;;;;;;;;5006092;28;20108;-75
2022/01/02 01:03:21;;;;;;;12.43;7.30;;;;;;;;;;5005517;28;20492;-75
2022/01/02 01:05:48;;;;;;;14.32;7.25;;;;;;;;;;5003604;28;20128;-75
2022/01/02 01:08:14;;;;;;;15.68;7.15;;;;;;;;;;5006553;28;20037;-75
2022/01/02 01:10:43;;;;;;;16.98;7.07;;;;;;;;;;5007930;28;20042;-75
2022/01/02 01:13:10;;;;;;;12.45;6.88;;;;;;;;;;5001271;28;20081;-75
2022/01/02 01:15:37;;;;;;;13.60;6.45;;;;;;;;;;4998562;28;20045;-75
2022/01/02 01:18:03;;;;;;;16.23;7.22;;;;;;;;;;4999647;28;20153;-75
2022/01/02 01:20:36;;;;;;;13.77;6.88;;;;;;;;;;5000027;28;20049;-75
2022/01/02 01:23:02;;;;;;;13.73;7.20;;;;;;;;;;5003166;28;20050;-75
2022/01/02 01:25:28;;;;;;;12.45;6.97;;;;;;;;;;4998773;28;20038;-75
2022/01/02 01:27:55;;;;;;;15.23;7.25;;;;;;;;;;5000230;28;20042;-75
2022/01/02 01:30:23;;;;;;;13.00;6.72;;;;;;;;;;5007275;28;20046;-75
2022/01/02 01:32:49;;;;;;;15.98;7.70;;;;;;;;;;5019233;28;20046;-75
2022/01/02 01:35:15;;;;;;;13.70;7.68;;;;;;;;;;5007777;28;20049;-75
2022/01/02 01:37:41;;;;;;;12.73;8.07;;;;;;;;;;5001573;28;20077;-75
2022/01/02 01:40:09;;;;;;;17.23;8.98;;;;;;;;;;5006135;28;20050;-75
2022/01/02 01:42:41;;;;;;;13.18;8.15;;;;;;;;;;5000497;28;20045;-75
2022/01/02 01:47:46;;;;;;;16.52;8.80;;;;;;;;;;5006859;28;20045;-75
2022/01/02 01:50:11;;;;;;;16.38;7.93;;;;;;;;;;5008839;28;20089;-75
2022/01/02 01:52:38;;;;;;;16.30;8.25;;;;;;;;;;5007128;28;20045;-75
2022/01/02 01:55:04;;;;;;;15.02;8.80;;;;;;;;;;5005018;28;20443;-75
2022/01/02 01:57:30;;;;;;;18.88;8.25;;;;;;;;;;5006902;28;20046;-75
2022/01/02 01:59:56;;;;;;;18.80;9.43;;;;;;;;;;5002706;28;20053;-75
2022/01/02 02:02:23;;;;;;;15.43;9.05;;;;;;;;;;5005668;28;20517;-75
2022/01/02 02:04:49;;;;;;;14.63;9.35;;;;;;;;;;5006984;28;20339;-75
2022/01/02 02:07:15;;;;;;;18.40;10.13;;;;;;;;;;5001854;28;20057;-75
2022/01/02 02:09:59;;;;;;;16.63;9.63;;;;;;;;;;5011135;28;20057;-75
2022/01/02 02:12:26;;;;;;;18.30;10.27;;;;;;;;;;5006503;28;20089;-75
2022/01/02 02:14:52;;;;;;;17.02;10.32;;;;;;;;;;5004779;28;20406;-75
2022/01/02 02:17:18;;;;;;;17.98;11.43;;;;;;;;;;5004066;28;20045;-75
2022/01/02 02:19:46;;;;;;;20.60;11.30;;;;;;;;;;5005187;28;20371;-75
2022/01/02 02:22:12;;;;;;;17.52;10.93;;;;;;;;;;5006287;28;20066;-75
2022/01/02 02:24:40;;;;;;;17.55;10.82;;;;;;;;;;5004540;28;20045;-75
2022/01/02 02:27:06;;;;;;;17.77;11.10;;;;;;;;;;5006754;28;20394;-75
2022/01/02 02:29:32;;;;;;;19.60;11.68;;;;;;;;;;5000037;28;20421;-75
2022/01/02 02:31:58;;;;;;;17.60;11.35;;;;;;;;;;5003666;28;20057;-75
2022/01/02 02:34:24;;;;;;;16.23;10.85;;;;;;;;;;5004136;28;20560;-75
2022/01/02 02:36:50;;;;;;;16.50;11.32;;;;;;;;;;5007977;28;20049;-75
2022/01/02 02:39:16;;;;;;;17.13;12.38;;;;;;;;;;5006093;28;20169;-75
2022/01/02 02:41:43;;;;;;;16.13;12.43;;;;;;;;;;5007347;28;20125;-75
2022/01/02 02:44:21;;;;;;;15.40;12.75;;;;;;;;;;5003793;28;20064;-75
2022/01/02 02:49:32;;;;;;;16.45;13.07;;;;;;;;;;5003520;28;20065;-75
2022/01/02 02:52:07;;;;;;;19.15;13.77;;;;;;;;;;5006978;28;20547;-75
2022/01/02 02:54:33;;;;;;;20.15;13.70;;;;;;;;;;5002542;28;20054;-74
2022/01/02 02:57:00;;;;;;;19.80;13.57;;;;;;;;;;5008951;28;20049;-74
2022/01/02 02:59:31;;;;;;;20.55;12.93;;;;;;;;;;5006769;28;20049;-75
2022/01/02 03:01:58;;;;;;;16.95;12.68;;;;;;;;;;5009033;28;20053;-75
2022/01/02 03:04:24;;;;;;;18.02;12.80;;;;;;;;;;5005923;28;20442;-75
2022/01/02 03:06:51;;;;;;;18.83;12.55;;;;;;;;;;5009167;28;20061;-75
2022/01/02 03:09:31;;;;;;;13.93;10.85;;;;;;;;;;5009056;28;20493;-75
2022/01/02 03:11:57;;;;;;;14.43;11.68;;;;;;;;;;5009608;28;20560;-75
2022/01/02 03:14:24;;;;;;;15.43;11.00;;;;;;;;;;5010182;28;20045;-75
2022/01/02 03:16:50;;;;;;;13.50;10.68;;;;;;;;;;5007231;28;20058;-75
2022/01/02 03:19:16;;;;;;;13.98;10.80;;;;;;;;;;5008176;28;20038;-74
2022/01/02 03:21:42;;;;;;;16.75;11.68;;;;;;;;;;5005857;28;20052;-74
2022/01/02 03:24:08;;;;;;;16.58;11.07;;;;;;;;;;5007486;28;20042;-75
2022/01/02 03:26:34;;;;;;;16.98;12.05;;;;;;;;;;5002442;28;20504;-74
2022/01/02 03:29:00;;;;;;;17.95;12.02;;;;;;;;;;5006075;28;20046;-74
2022/01/02 03:31:26;;;;;;;15.68;11.40;;;;;;;;;;5011372;28;20054;-75
2022/01/02 03:33:52;;;;;;;17.25;11.75;;;;;;;;;;5007960;28;20038;-75
2022/01/02 03:36:18;;;;;;;16.65;12.38;;;;;;;;;;5006853;28;20093;-75
2022/01/02 03:38:45;;;;;;;17.00;11.85;;;;;;;;;;5004975;28;24687;-75
2022/01/02 03:41:11;;;;;;;17.10;12.18;;;;;;;;;;5008721;28;20060;-75
2022/01/02 03:43:37;;;;;;;19.88;11.63;;;;;;;;;;5008059;28;20064;-74
2022/01/02 03:46:04;;;;;;;18.65;11.55;;;;;;;;;;5009451;28;20367;-74
2022/01/02 03:48:31;;;;;;;16.55;12.15;;;;;;;;;;5016521;28;20057;-75
2022/01/02 03:50:57;;;;;;;18.23;12.30;;;;;;;;;;5009015;28;20112;-74
2022/01/02 03:53:23;;;;;;;18.35;12.82;;;;;;;;;;5010298;28;20544;-74
2022/01/02 03:55:49;;;;;;;18.83;12.77;;;;;;;;;;5005200;28;20041;-73
2022/01/02 03:58:15;;;;;;;20.52;13.00;;;;;;;;;;5010217;28;20078;-74
2022/01/02 04:00:41;;;;;;;19.15;12.65;;;;;;;;;;5008059;28;20093;-74
2022/01/02 04:03:07;;;;;;;17.45;12.40;;;;;;;;;;5008212;28;20058;-74
2022/01/02 04:05:33;;;;;;;19.98;12.65;;;;;;;;;;5008626;28;20061;-74
2022/01/02 04:07:59;;;;;;;21.08;11.48;;;;;;;;;;5008523;28;20041;-74
2022/01/02 04:10:25;;;;;;;16.52;10.77;;;;;;;;;;5007910;28;21608;-75
2022/01/02 04:12:51;;;;;;;20.08;11.30;;;;;;;;;;5009165;28;20046;-74
2022/01/02 04:15:17;;;;;;;19.88;11.00;;;;;;;;;;5006960;28;20061;-75
2022/01/02 04:17:43;;;;;;;17.40;11.60;;;;;;;;;;5008912;28;20045;-74
2022/01/02 04:20:10;;;;;;;18.60;12.10;;;;;;;;;;5010569;28;20129;-74
2022/01/02 04:22:36;;;;;;;17.67;11.25;;;;;;;;;;5003311;28;20050;-74
2022/01/02 04:25:03;;;;;;;22.23;10.55;;;;;;;;;;5009002;28;20045;-74
2022/01/02 04:27:29;;;;;;;20.23;10.25;;;;;;;;;;5008479;28;20052;-74
2022/01/02 04:29:55;;;;;;;20.30;10.20;;;;;;;;;;5007582;28;20458;-74
2022/01/02 04:32:21;;;;;;;19.60;10.50;;;;;;;;;;5009482;28;20414;-74
2022/01/02 04:34:47;;;;;;;15.07;10.38;;;;;;;;;;5007190;28;20065;-74
2022/01/02 04:37:14;;;;;;;23.75;10.85;;;;;;;;;;5004025;28;20081;-74
2022/01/02 04:39:40;;;;;;;19.27;10.45;;;;;;;;;;5005066;28;20038;-74
2022/01/02 04:42:07;;;;;;;16.92;10.90;;;;;;;;;;5009426;28;20464;-74
2022/01/02 04:44:33;;;;;;;16.60;10.70;;;;;;;;;;5005836;28;20046;-74
2022/01/02 04:46:59;;;;;;;17.63;10.13;;;;;;;;;;5006223;28;20141;-74
2022/01/02 04:49:26;;;;;;;22.55;9.60;;;;;;;;;;5009151;28;20397;-75
2022/01/02 04:51:53;;;;;;;15.43;8.57;;;;;;;;;;5007713;28;20125;-74
2022/01/02 04:54:20;;;;;;;20.42;8.60;;;;;;;;;;5007429;28;20050;-74
2022/01/02 04:56:46;;;;;;;22.35;9.60;;;;;;;;;;5006904;28;20092;-74
2022/01/02 04:59:12;;;;;;;16.55;8.40;;;;;;;;;;5003131;28;20061;-75
2022/01/02 05:01:38;;;;;;;17.73;7.80;;;;;;;;;;5002121;28;20056;-74
2022/01/02 05:04:04;;;;;;;20.75;8.48;;;;;;;;;;5008748;28;20124;-74
2022/01/02 05:06:30;;;;;;;20.02;7.88;;;;;;;;;;5004450;28;20050;-74
2022/01/02 05:08:56;;;;;;;19.08;8.48;;;;;;;;;;5006930;28;20149;-75
2022/01/02 05:11:22;;;;;;;16.02;7.68;;;;;;;;;;5007176;28;20553;-74
2022/01/02 05:13:48;;;;;;;18.73;7.28;;;;;;;;;;4999811;28;20096;-74
2022/01/02 05:16:14;;;;;;;18.27;7.85;;;;;;;;;;5004868;28;20104;-74
2022/01/02 05:18:40;;;;;;;18.65;7.22;;;;;;;;;;5004913;28;20042;-74
2022/01/02 05:21:06;;;;;;;19.80;6.80;;;;;;;;;;5008145;28;20041;-74
2022/01/02 05:23:32;;;;;;;17.02;6.45;;;;;;;;;;5004553;28;20095;-74
2022/01/02 05:25:58;;;;;;;20.00;6.75;;;;;;;;;;5006156;28;20049;-74
2022/01/02 05:28:24;;;;;;;22.15;6.13;;;;;;;;;;5008094;28;20137;-74
2022/01/02 05:30:51;;;;;;;18.05;6.30;;;;;;;;;;5002516;28;20053;-74
2022/01/02 05:33:17;;;;;;;19.38;6.72;;;;;;;;;;5000888;28;20042;-74
2022/01/02 05:35:43;;;;;;;21.27;6.60;;;;;;;;;;5000610;28;20104;-74
2022/01/02 05:38:09;;;;;;;22.15;6.45;;;;;;;;;;5001006;28;20539;-74
2022/01/02 05:40:35;;;;;;;22.33;7.18;;;;;;;;;;5002876;28;20042;-74
2022/01/02 05:43:05;;;;;;;21.05;6.95;;;;;;;;;;5007083;28;20139;-74
2022/01/02 05:45:32;;;;;;;22.70;7.32;;;;;;;;;;5024040;28;20409;-74
2022/01/02 05:47:58;;;;;;;24.95;7.32;;;;;;;;;;5008572;28;20050;-74
2022/01/02 05:50:24;;;;;;;23.70;7.45;;;;;;;;;;5006408;28;20049;-74
2022/01/02 05:52:50;;;;;;;26.92;6.95;;;;;;;;;;5007238;28;20050;-74
2022/01/02 05:55:17;;;;;;;19.58;6.82;;;;;;;;;;5003407;28;20096;-74
2022/01/02 05:57:43;;;;;;;27.70;6.90;;;;;;;;;;5007633;28;20042;-74
2022/01/02 06:00:09;;;;;;;22.65;6.63;;;;;;;;;;5001386;28;20140;-74
2022/01/02 06:02:36;;;;;;;20.33;6.35;;;;;;;;;;5006462;28;20103;-74
2022/01/02 06:05:03;;;;;;;20.20;6.00;;;;;;;;;;5003454;28;20439;-74
2022/01/02 06:07:32;;;;;;;18.05;6.10;;;;;;;;;;5005880;28;20058;-74
2022/01/02 06:09:58;;;;;;;21.80;6.57;;;;;;;;;;5001012;28;20042;-74
2022/01/02 06:12:24;;;;;;;15.77;6.68;;;;;;;;;;5007669;28;20478;-74
2022/01/02 06:14:50;;;;;;;15.30;6.28;;;;;;;;;;5008019;28;20076;-74
2022/01/02 06:17:16;;;;;;;18.02;6.55;;;;;;;;;;5003013;28;20054;-74
2022/01/02 06:19:42;;;;;;;14.23;7.43;;;;;;;;;;5005755;28;20042;-74
2022/01/02 06:22:08;;;;;;;16.17;6.82;;;;;;;;;;4998249;28;20100;-74
2022/01/02 06:24:34;;;;;;;17.17;7.47;;;;;;;;;;5004729;28;20084;-74
2022/01/02 06:27:00;;;;;;;19.67;8.25;;;;;;;;;;5000421;28;20605;-74
2022/01/02 06:29:26;;;;;;;17.77;7.70;;;;;;;;;;5003338;28;20084;-74
2022/01/02 06:31:53;;;;;;;12.18;7.25;;;;;;;;;;5002434;28;20047;-74
2022/01/02 06:34:19;;;;;;;12.98;7.28;;;;;;;;;;5003631;28;20085;-74
2022/01/02 06:36:45;;;;;;;12.32;7.00;;;;;;;;;;5004791;28;20513;-74
2022/01/02 06:39:11;;;;;;;10.52;7.32;;;;;;;;;;5001326;28;20050;-74
2022/01/02 06:41:37;;;;;;;11.25;7.53;;;;;;;;;;5003768;28;20125;-74
2022/01/02 06:44:03;;;;;;;14.65;8.18;;;;;;;;;;5004721;28;20045;-74
2022/01/02 06:46:29;;;;;;;12.52;8.13;;;;;;;;;;5006202;28;20125;-74
2022/01/02 06:48:55;;;;;;;12.80;8.50;;;;;;;;;;5006893;28;20132;-74
2022/01/02 06:51:21;;;;;;;19.35;9.02;;;;;;;;;;5006307;28;20042;-74
2022/01/02 06:53:47;;;;;;;15.65;9.20;;;;;;;;;;5003806;28;20409;-74
2022/01/02 06:56:13;;;;;;;12.20;8.13;;;;;;;;;;5005424;28;20490;-74
2022/01/02 06:58:40;;;;;;;11.20;8.40;;;;;;;;;;5002217;28;20448;-74
2022/01/02 07:01:06;;;;;;;12.30;7.53;;;;;;;;;;5003259;28;20053;-74
2022/01/02 07:03:33;;;;;;;11.35;7.38;;;;;;;;;;5007462;28;20080;-74
2022/01/02 07:06:00;;;;;;;14.32;8.05;;;;;;;;;;5006380;28;20042;-74
2022/01/02 07:08:27;;;;;;;13.05;8.43;;;;;;;;;;5002522;28;20050;-74
2022/01/02 07:10:54;;;;;;;13.40;8.82;;;;;;;;;;5006398;28;20046;-74
2022/01/02 07:13:20;;;;;;;17.52;8.45;;;;;;;;;;5007139;28;20442;-74
2022/01/02 07:15:46;;;;;;;26.80;8.85;;;;;;;;;;5004968;28;20133;-74
2022/01/02 07:18:12;;;;;;;28.60;8.15;;;;;;;;;;5004014;28;20054;-74
2022/01/02 07:20:38;;;;;;;27.20;8.15;;;;;;;;;;5005591;28;20127;-74
2022/01/02 07:23:04;;;;;;;34.20;9.48;;;;;;;;;;5004028;28;20053;-73
2022/01/02 07:25:30;;;;;;;29.00;7.97;;;;;;;;;;5004582;28;20116;-74
2022/01/02 07:27:56;;;;;;;30.05;8.48;;;;;;;;;;5003633;28;20137;-74
2022/01/02 07:30:25;;;;;;;33.95;7.65;;;;;;;;;;5004221;28;20088;-74
2022/01/02 07:32:51;;;;;;;33.72;8.27;;;;;;;;;;5004968;28;20038;-74
2022/01/02 07:35:17;;;;;;;34.97;8.70;;;;;;;;;;5004482;28;20521;-73
2022/01/02 07:37:43;;;;;;;26.75;7.50;;;;;;;;;;5004849;28;20096;-74
2022/01/02 07:40:09;;;;;;;31.88;8.07;;;;;;;;;;5002259;28;20098;-74
2022/01/02 07:42:36;;;;;;;28.58;8.18;;;;;;;;;;5008225;28;20045;-74
2022/01/02 07:45:02;;;;;;;26.02;7.63;;;;;;;;;;5007981;28;20445;-74
2022/01/02 07:47:28;;;;;;;24.73;7.55;;;;;;;;;;5006779;28;20096;-74
2022/01/02 07:49:54;;;;;;;24.73;6.55;;;;;;;;;;5004707;28;20502;-74
2022/01/02 07:52:20;;;;;;;23.08;7.18;;;;;;;;;;5010275;28;20401;-74
2022/01/02 07:54:46;;;;;;;27.60;6.75;;;;;;;;;;5006501;28;20061;-74
2022/01/02 07:57:12;;;;;;;25.52;6.95;;;;;;;;;;5004894;28;20446;-74
2022/01/02 07:59:38;;;;;;;22.02;6.47;;;;;;;;;;5008074;28;20135;-74
2022/01/02 08:02:04;;;;;;;23.45;6.32;;;;;;;;;;5008479;28;20053;-74
2022/01/02 08:04:30;;;;;;;19.05;6.03;;;;;;;;;;5001197;28;20484;-74
2022/01/02 08:06:56;;;;;;;21.08;6.07;;;;;;;;;;5006451;28;20053;-74
2022/01/02 08:09:22;;;;;;;22.30;6.03;;;;;;;;;;5004573;28;20038;-74
2022/01/02 08:11:48;;;;;;;15.43;5.00;;;;;;;;;;5011356;28;20136;-74
2022/01/02 08:14:15;;;;;;;12.27;4.65;;;;;;;;;;5010406;28;20129;-74
2022/01/02 08:16:41;;;;;;;20.23;5.35;;;;;;;;;;5003205;28;20045;-74
2022/01/02 08:19:08;;;;;;;19.13;5.40;;;;;;;;;;5007167;28;20056;-74
2022/01/02 08:21:34;;;;;;;12.63;5.00;;;;;;;;;;5005986;28;20064;-74
2022/01/02 08:24:00;;;;;;;14.40;4.85;;;;;;;;;;5007094;28;20116;-74
2022/01/02 08:26:26;;;;;;;8.95;4.25;;;;;;;;;;5006448;28;20054;-74
2022/01/02 08:28:52;;;;;;;13.48;5.47;;;;;;;;;;5008221;28;20034;-74
2022/01/02 08:31:18;;;;;;;8.57;4.70;;;;;;;;;;5006643;28;20504;-74
2022/01/02 08:33:44;;;;;;;11.55;5.47;;;;;;;;;;5004235;28;20053;-74
2022/01/02 08:36:10;;;;;;;13.35;4.47;;;;;;;;;;5003314;28;20054;-74
2022/01/02 08:38:37;;;;;;;12.20;4.68;;;;;;;;;;5004437;28;20077;-73
2022/01/02 08:41:03;;;;;;;10.40;4.30;;;;;;;;;;5009677;28;20037;-74
2022/01/02 08:43:29;;;;;;;8.15;4.45;;;;;;;;;;5009372;28;20502;-74
2022/01/02 08:45:55;;;;;;;11.85;5.38;;;;;;;;;;5007942;28;20057;-74
2022/01/02 08:48:22;;;;;;;10.45;4.70;;;;;;;;;;5010276;28;20061;-74
2022/01/02 08:50:48;;;;;;;9.05;5.20;;;;;;;;;;5007519;28;20058;-74
2022/01/02 08:53:14;;;;;;;12.13;5.55;;;;;;;;;;5001457;28;20049;-74
2022/01/02 08:55:41;;;;;;;9.07;5.30;;;;;;;;;;5006467;28;20046;-74
2022/01/02 08:58:08;;;;;;;10.90;5.88;;;;;;;;;;5005870;28;20101;-74
2022/01/02 09:00:35;;;;;;;12.90;5.82;;;;;;;;;;5006670;28;20057;-74
2022/01/02 09:03:01;;;;;;;8.93;5.57;;;;;;;;;;5007485;28;20144;-74
2022/01/02 09:05:27;;;;;;;12.40;5.97;;;;;;;;;;5001669;28;20050;-74
2022/01/02 09:07:54;;;;;;;10.75;5.82;;;;;;;;;;5003883;28;20041;-74
2022/01/02 09:10:21;;;;;;;9.48;5.55;;;;;;;;;;5003492;28;20073;-74
2022/01/02 09:12:47;;;;;;;12.90;5.80;;;;;;;;;;5006392;28;20057;-74
2022/01/02 09:15:13;;;;;;;15.15;6.22;;;;;;;;;;5009103;28;20037;-74
2022/01/02 09:17:39;;;;;;;8.80;5.40;;;;;;;;;;5004851;28;20048;-74
2022/01/02 09:20:07;;;;;;;11.85;6.07;;;;;;;;;;5007958;28;20042;-74
2022/01/02 09:22:33;;;;;;;10.55;5.65;;;;;;;;;;5004183;28;20049;-74
2022/01/02 09:24:59;;;;;;;10.55;5.47;;;;;;;;;;5006993;28;20534;-75
2022/01/02 09:27:25;;;;;;;14.63;6.28;;;;;;;;;;5010351;28;20100;-74
2022/01/02 09:29:51;;;;;;;11.43;6.25;;;;;;;;;;5006683;28;20050;-75
2022/01/02 09:32:17;;;;;;;9.10;6.20;;;;;;;;;;5007416;28;20490;-75
2022/01/02 09:34:43;;;;;;;13.13;7.25;;;;;;;;;;5004821;28;20057;-75
2022/01/02 09:37:09;;;;;;;12.55;7.38;;;;;;;;;;5008600;28;20099;-75
2022/01/02 09:39:35;;;;;;;14.57;7.45;;;;;;;;;;5007202;28;20414;-74
2022/01/02 09:42:02;;;;;;;14.07;7.95;;;;;;;;;;5007253;28;20479;-74
2022/01/02 09:44:29;;;;;;;14.27;7.57;;;;;;;;;;5011439;28;20137;-75
2022/01/02 09:46:56;;;;;;;16.98;8.50;;;;;;;;;;5023003;28;20060;-75
2022/01/02 09:49:22;;;;;;;17.10;8.38;;;;;;;;;;5004634;28;20565;-74
2022/01/02 09:51:48;;;;;;;12.70;8.35;;;;;;;;;;5004949;28;20041;-75
2022/01/02 09:54:14;;;;;;;19.58;9.48;;;;;;;;;;5008012;28;20123;-74
2022/01/02 09:56:40;;;;;;;19.92;8.60;;;;;;;;;;5008213;28;20069;-74
2022/01/02 09:59:06;;;;;;;23.38;9.68;;;;;;;;;;5010757;28;20084;-75
2022/01/02 10:01:33;;;;;;;24.10;8.38;;;;;;;;;;5005797;28;20046;-74
2022/01/02 10:03:59;;;;;;;21.52;8.90;;;;;;;;;;5010187;28;20133;-75
2022/01/02 10:06:53;;;;;;;23.77;7.85;;;;;;;;;;5007406;28;20049;-75
2022/01/02 10:09:32;;;;;;;25.98;9.82;;;;;;;;;;5001067;28;20536;-75
2022/01/02 10:12:18;;;;;;;23.40;8.07;;;;;;;;;;5005103;28;20045;-74
2022/01/02 10:14:44;;;;;;;21.00;7.60;;;;;;;;;;5022949;28;20042;-75
2022/01/02 10:17:10;;;;;;;19.10;7.32;;;;;;;;;;5003378;28;20125;-75
2022/01/02 10:19:38;;;;;;;22.65;7.32;;;;;;;;;;5007728;28;20054;-74
2022/01/02 10:22:06;;;;;;;22.52;8.32;;;;;;;;;;5007388;28;20121;-75
2022/01/02 10:24:33;;;;;;;25.65;8.63;;;;;;;;;;5002831;28;20490;-75
2022/01/02 10:27:15;;;;;;;29.08;8.20;;;;;;;;;;5006246;28;20041;-77
2022/01/02 10:29:50;;;;;;;23.92;8.25;;;;;;;;;;5006171;28;20074;-75
2022/01/02 10:32:26;;;;;;;22.90;7.00;;;;;;;;;;5001842;28;20087;-78
2022/01/02 10:34:53;;;;;;;24.05;8.07;;;;;;;;;;5001949;28;20085;-76
2022/01/02 10:37:26;;;;;;;24.20;8.30;;;;;;;;;;5006962;28;20103;-74
2022/01/02 10:39:52;;;;;;;25.10;8.20;;;;;;;;;;4999754;28;20053;-74
2022/01/02 10:42:19;;;;;;;28.08;8.13;;;;;;;;;;5005821;28;20312;-74
2022/01/02 10:44:45;;;;;;;28.08;8.05;;;;;;;;;;5006980;28;20042;-76
2022/01/02 10:47:14;;;;;;;24.75;7.40;;;;;;;;;;5003601;28;20410;-76
2022/01/02 10:50:02;;;;;;;23.60;7.85;;;;;;;;;;5005455;28;20096;-74
2022/01/02 10:52:35;;;;;;;23.85;10.07;;;;;;;;;;5007963;28;20069;-77
2022/01/02 10:55:05;;;;;;;24.05;8.10;;;;;;;;;;4997284;28;20046;-76
2022/01/02 10:57:32;;;;;;;21.17;7.25;;;;;;;;;;5007880;28;20096;-76
2022/01/02 10:59:58;;;;;;;23.88;7.90;;;;;;;;;;5004244;28;20053;-75
2022/01/02 11:02:25;;;;;;;23.38;8.05;;;;;;;;;;5007166;28;20413;-76
2022/01/02 11:04:59;;;;;;;24.38;8.13;;;;;;;;;;5004580;28;20072;-76
2022/01/02 11:07:25;;;;;;;27.80;9.20;;;;;;;;;;5006901;28;20097;-76
2022/01/02 11:09:55;;;;;;;22.65;7.93;;;;;;;;;;4997633;28;20045;-76
2022/01/02 11:12:22;;;;;;;22.80;7.95;;;;;;;;;;5006735;28;20053;-77
2022/01/02 11:14:50;;;;;;;26.48;8.32;;;;;;;;;;5003541;28;20446;-79
2022/01/02 11:17:17;;;;;;;29.35;7.60;;;;;;;;;;5008232;28;20050;-76
2022/01/02 11:19:43;;;;;;;25.52;8.85;;;;;;;;;;5008289;28;20050;-76
2022/01/02 11:22:14;;;;;;;24.70;7.55;;;;;;;;;;5006255;28;20454;-76
2022/01/02 11:25:01;;;;;;;28.67;8.20;;;;;;;;;;5008136;28;20050;-76
2022/01/02 11:27:32;;;;;;;28.83;8.52;;;;;;;;;;5003183;28;20077;-76
2022/01/02 11:29:58;;;;;;;25.08;7.95;;;;;;;;;;5005944;28;20473;-76
2022/01/02 11:32:27;;;;;;;32.03;8.05;;;;;;;;;;5007810;28;20050;-76
2022/01/02 11:34:55;;;;;;;26.05;7.65;;;;;;;;;;5005561;28;20045;-76
2022/01/02 11:37:24;;;;;;;32.45;11.40;;;;;;;;;;5006651;28;20046;-75
2022/01/02 11:40:00;;;;;;;31.95;8.73;;;;;;;;;;5007776;28;20046;-75
2022/01/02 11:42:35;;;;;;;21.25;6.75;;;;;;;;;;5007171;28;20061;-75
2022/01/02 11:45:02;;;;;;;21.02;7.25;;;;;;;;;;5006511;28;20091;-76
2022/01/02 11:47:40;;;;;;;17.88;6.25;;;;;;;;;;5001384;28;20084;-76
2022/01/02 11:50:26;;;;;;;18.45;5.80;;;;;;;;;;5005506;28;20045;-76
2022/01/02 11:53:11;;;;;;;20.85;6.18;;;;;;;;;;5010943;28;20073;-76
2022/01/02 11:55:37;;;;;;;17.20;6.35;;;;;;;;;;5009217;28;20049;-75
2022/01/02 11:58:03;;;;;;;20.15;6.85;;;;;;;;;;5010206;28;20057;-75
2022/01/02 12:00:43;;;;;;;29.05;6.88;;;;;;;;;;5009804;28;20050;-75
2022/01/02 12:03:29;;;;;;;24.20;6.38;;;;;;;;;;5005063;28;20074;-76
2022/01/02 12:06:15;;;;;;;25.35;6.65;;;;;;;;;;4987531;28;20046;-76
2022/01/02 12:08:41;;;;;;;27.40;5.80;;;;;;;;;;5004584;28;20125;-76
2022/01/02 12:11:26;;;;;;;22.77;6.07;;;;;;;;;;5010566;28;20046;-76
2022/01/02 12:14:12;;;;;;;24.35;6.35;;;;;;;;;;5007969;28;20052;-77
2022/01/02 12:16:40;;;;;;;23.58;5.63;;;;;;;;;;4998568;28;20119;-76
2022/01/02 12:19:08;;;;;;;20.33;5.18;;;;;;;;;;4999880;28;20046;-75
2022/01/02 12:21:37;;;;;;;19.08;4.97;;;;;;;;;;5007112;28;20037;-75
2022/01/02 12:24:07;;;;;;;17.08;4.47;;;;;;;;;;5003598;28;20509;-75
2022/01/02 12:26:39;;;;;;;18.13;4.15;;;;;;;;;;5005953;28;20132;-75
2022/01/02 12:29:06;;;;;;;18.27;5.07;;;;;;;;;;5000989;28;20129;-75
2022/01/02 12:31:35;;;;;;;14.52;4.25;;;;;;;;;;5002760;28;20118;-75
2022/01/02 12:34:04;;;;;;;16.92;5.32;;;;;;;;;;5001312;28;20046;-75
2022/01/02 12:36:30;;;;;;;20.65;4.55;;;;;;;;;;5003059;28;20107;-75
2022/01/02 12:39:00;;;;;;;19.10;4.82;;;;;;;;;;5001118;28;20583;-76
2022/01/02 12:41:28;;;;;;;13.27;4.53;;;;;;;;;;5004414;28;20050;-75
2022/01/02 12:43:55;;;;;;;19.33;4.47;;;;;;;;;;5003810;28;20402;-76
2022/01/02 12:47:00;;;;;;;20.58;4.63;;;;;;;;;;5003975;28;20061;-76
2022/01/02 12:49:30;;;;;;;18.48;4.43;;;;;;;;;;4972590;28;20146;-75
2022/01/02 12:51:57;;;;;;;15.30;4.38;;;;;;;;;;4981273;28;20038;-76
2022/01/02 12:54:27;;;;;;;11.57;4.10;;;;;;;;;;4994988;28;20058;-74
2022/01/02 12:56:53;;;;;;;13.90;5.38;;;;;;;;;;4998104;28;20050;-72
2022/01/02 12:59:21;;;;;;;15.55;3.75;;;;;;;;;;5003385;28;20038;-73
2022/01/02 13:01:57;;;;;;;16.10;4.00;;;;;;;;;;5005004;28;20054;-71
2022/01/02 13:04:24;;;;;;;16.13;4.88;;;;;;;;;;5008475;28;20053;-72
2022/01/02 13:06:51;;;;;;;19.83;4.65;;;;;;;;;;5003781;28;20045;-75
2022/01/02 13:09:24;;;;;;;14.27;3.75;;;;;;;;;;5003091;28;20046;-74
2022/01/02 13:11:50;;;;;;;15.10;3.97;;;;;;;;;;4998343;28;20050;-73
2022/01/02 13:14:31;;;;;;;15.60;4.25;;;;;;;;;;5003074;28;20500;-74
2022/01/02 13:16:57;;;;;;;13.52;4.50;;;;;;;;;;5002077;28;20037;-74
2022/01/02 13:19:24;;;;;;;14.55;3.90;;;;;;;;;;5000742;28;20053;-74
2022/01/02 13:21:50;;;;;;;14.60;4.53;;;;;;;;;;5003206;28;20050;-74
2022/01/02 13:24:23;;;;;;;11.38;3.63;;;;;;;;;;5001587;28;20046;-74
2022/01/02 13:26:49;;;;;;;11.95;3.50;;;;;;;;;;5006351;28;20108;-74
2022/01/02 13:29:26;;;;;;;12.30;3.45;;;;;;;;;;5005301;28;20042;-73
2022/01/02 13:31:53;;;;;;;10.75;3.05;;;;;;;;;;5003340;28;20086;-74
2022/01/02 13:34:24;;;;;;;12.57;3.42;;;;;;;;;;5002230;28;20061;-75
2022/01/02 13:37:00;;;;;;;11.75;3.72;;;;;;;;;;5004538;28;20058;-74
2022/01/02 13:39:41;;;;;;;12.88;2.97;;;;;;;;;;5005594;28;20077;-74
2022/01/02 13:42:07;;;;;;;10.93;3.60;;;;;;;;;;5007083;28;20041;-74
2022/01/02 13:44:44;;;;;;;9.40;3.00;;;;;;;;;;5006183;28;20042;-73
2022/01/02 13:47:12;;;;;;;11.68;3.30;;;;;;;;;;5007342;28;20077;-73
2022/01/02 13:49:39;;;;;;;13.90;3.70;;;;;;;;;;5009768;28;20042;-74
2022/01/02 13:52:05;;;;;;;9.60;3.47;;;;;;;;;;5006573;28;20052;-73
2022/01/02 13:54:31;;;;;;;10.48;2.90;;;;;;;;;;5003796;28;20049;-73
2022/01/02 13:56:58;;;;;;;12.20;3.45;;;;;;;;;;5004016;28;21591;-73
2022/01/02 13:59:25;;;;;;;10.00;2.85;;;;;;;;;;5004317;28;20056;-73
2022/01/02 14:01:51;;;;;;;8.50;2.78;;;;;;;;;;5001556;28;20117;-72
2022/01/02 14:04:19;;;;;;;11.82;2.83;;;;;;;;;;5004261;28;20054;-74
2022/01/02 14:06:46;;;;;;;12.48;3.53;;;;;;;;;;5002430;28;20045;-74
2022/01/02 14:09:16;;;;;;;13.88;3.45;;;;;;;;;;5003893;28;20383;-73
2022/01/02 14:11:43;;;;;;;12.02;3.10;;;;;;;;;;5002120;28;20108;-73
2022/01/02 14:14:18;;;;;;;12.35;2.97;;;;;;;;;;5005753;28;20054;-74
2022/01/02 14:19:40;;;;;;;12.27;3.05;;;;;;;;;;5005011;28;20050;-73
2022/01/02 14:22:06;;;;;;;9.77;2.60;;;;;;;;;;5003270;28;20213;-74
2022/01/02 14:24:33;;;;;;;13.10;3.15;;;;;;;;;;5001697;28;20112;-74
2022/01/02 14:26:59;;;;;;;9.50;2.97;;;;;;;;;;5001070;28;20169;-74
2022/01/02 14:29:25;;;;;;;15.02;3.47;;;;;;;;;;5000910;28;20156;-73
2022/01/02 14:31:54;;;;;;;22.55;5.57;;;;;;;;;;5005467;28;20099;-73
2022/01/02 14:34:20;;;;;;;16.70;4.88;;;;;;;;;;5009351;28;20054;-72
2022/01/02 14:36:46;;;;;;;20.13;4.90;;;;;;;;;;4999647;28;20045;-74
2022/01/02 14:39:12;;;;;;;23.45;6.07;;;;;;;;;;5000854;28;20113;-74
2022/01/02 14:41:40;;;;;;;25.92;5.40;;;;;;;;;;5002443;28;20049;-71